sensor_id;sensor_type;location;lat;lon;timestamp;P1;durP1;ratioP1;P2;durP2;ratioP2
12780;SDS011;6454;43.304;24.344;2023-05-07T00:00:39;4.20;;;3.47;;
12780;SDS011;6454;43.304;24.344;2023-05-07T00:03:07;4.55;;;4.13;;
12780;SDS011;6454;43.304;24.344;2023-05-07T00:05:35;7.25;;;3.78;;
12780;SDS011;6454;43.304;24.344;2023-05-07T00:08:03;6.68;;;3.75;;
12780;SDS011;6454;43.304;24.344;2023-05-07T00:10:30;4.75;;;3.42;;
12780;SDS011;6454;43.304;24.344;2023-05-07T00:12:57;3.80;;;3.50;;
12780;SDS011;6454;43.304;24.344;2023-05-07T00:15:23;4.75;;;3.58;;
12780;SDS011;6454;43.304;24.344;2023-05-07T00:17:50;3.40;;;3.10;;
12780;SDS011;6454;43.304;24.344;2023-05-07T00:20:17;4.53;;;3.70;;
12780;SDS011;6454;43.304;24.344;2023-05-07T00:22:45;6.65;;;3.88;;
12780;SDS011;6454;43.304;24.344;2023-05-07T00:25:12;5.10;;;4.18;;
12780;SDS011;6454;43.304;24.344;2023-05-07T00:27:39;4.30;;;3.90;;
12780;SDS011;6454;43.304;24.344;2023-05-07T00:30:06;4.57;;;3.75;;
12780;SDS011;6454;43.304;24.344;2023-05-07T00:32:33;4.28;;;3.88;;
12780;SDS011;6454;43.304;24.344;2023-05-07T00:35:00;4.30;;;3.90;;
12780;SDS011;6454;43.304;24.344;2023-05-07T00:37:27;5.78;;;4.25;;
12780;SDS011;6454;43.304;24.344;2023-05-07T00:39:55;5.47;;;3.75;;
12780;SDS011;6454;43.304;24.344;2023-05-07T00:42:22;7.28;;;3.90;;
12780;SDS011;6454;43.304;24.344;2023-05-07T00:44:49;5.07;;;3.90;;
12780;SDS011;6454;43.304;24.344;2023-05-07T00:47:16;3.67;;;3.38;;
12780;SDS011;6454;43.304;24.344;2023-05-07T00:49:43;4.20;;;3.80;;
12780;SDS011;6454;43.304;24.344;2023-05-07T00:52:13;4.22;;;3.67;;
12780;SDS011;6454;43.304;24.344;2023-05-07T00:54:41;4.00;;;3.60;;
12780;SDS011;6454;43.304;24.344;2023-05-07T00:57:10;5.03;;;3.75;;
12780;SDS011;6454;43.304;24.344;2023-05-07T00:59:37;6.35;;;3.85;;
12780;SDS011;6454;43.304;24.344;2023-05-07T01:02:04;7.43;;;4.28;;
12780;SDS011;6454;43.304;24.344;2023-05-07T01:04:31;4.40;;;4.00;;
12780;SDS011;6454;43.304;24.344;2023-05-07T01:06:58;4.22;;;3.83;;
12780;SDS011;6454;43.304;24.344;2023-05-07T01:09:27;5.45;;;3.85;;
12780;SDS011;6454;43.304;24.344;2023-05-07T01:11:55;6.03;;;4.20;;
12780;SDS011;6454;43.304;24.344;2023-05-07T01:14:23;4.85;;;4.43;;
12780;SDS011;6454;43.304;24.344;2023-05-07T01:16:51;4.60;;;4.20;;
12780;SDS011;6454;43.304;24.344;2023-05-07T01:19:18;4.10;;;3.75;;
12780;SDS011;6454;43.304;24.344;2023-05-07T01:21:46;6.30;;;4.15;;
12780;SDS011;6454;43.304;24.344;2023-05-07T01:24:16;5.13;;;4.07;;
12780;SDS011;6454;43.304;24.344;2023-05-07T01:26:43;4.97;;;4.38;;
12780;SDS011;6454;43.304;24.344;2023-05-07T01:29:10;4.45;;;4.05;;
12780;SDS011;6454;43.304;24.344;2023-05-07T01:31:37;9.90;;;4.47;;
12780;SDS011;6454;43.304;24.344;2023-05-07T01:34:06;4.60;;;4.15;;
12780;SDS011;6454;43.304;24.344;2023-05-07T01:36:34;6.32;;;4.97;;
12780;SDS011;6454;43.304;24.344;2023-05-07T01:39:03;8.02;;;7.22;;
12780;SDS011;6454;43.304;24.344;2023-05-07T01:41:32;6.85;;;5.43;;
12780;SDS011;6454;43.304;24.344;2023-05-07T01:44:00;5.45;;;4.20;;
12780;SDS011;6454;43.304;24.344;2023-05-07T01:46:29;5.88;;;4.30;;
12780;SDS011;6454;43.304;24.344;2023-05-07T01:48:57;5.45;;;4.45;;
12780;SDS011;6454;43.304;24.344;2023-05-07T01:51:25;5.47;;;4.97;;
12780;SDS011;6454;43.304;24.344;2023-05-07T01:53:52;4.72;;;4.22;;
12780;SDS011;6454;43.304;24.344;2023-05-07T01:56:19;5.03;;;4.18;;
12780;SDS011;6454;43.304;24.344;2023-05-07T01:58:48;4.35;;;3.95;;
12780;SDS011;6454;43.304;24.344;2023-05-07T02:01:16;4.07;;;3.67;;
12780;SDS011;6454;43.304;24.344;2023-05-07T02:03:43;5.35;;;3.95;;
12780;SDS011;6454;43.304;24.344;2023-05-07T02:06:10;6.90;;;4.07;;
12780;SDS011;6454;43.304;24.344;2023-05-07T02:08:36;6.20;;;4.03;;
12780;SDS011;6454;43.304;24.344;2023-05-07T02:11:03;7.85;;;4.28;;
12780;SDS011;6454;43.304;24.344;2023-05-07T02:13:31;5.80;;;4.00;;
12780;SDS011;6454;43.304;24.344;2023-05-07T02:16:01;4.07;;;3.67;;
12780;SDS011;6454;43.304;24.344;2023-05-07T02:18:27;4.45;;;4.05;;
12780;SDS011;6454;43.304;24.344;2023-05-07T02:20:54;5.32;;;4.03;;
12780;SDS011;6454;43.304;24.344;2023-05-07T02:23:21;4.50;;;4.10;;
12780;SDS011;6454;43.304;24.344;2023-05-07T02:25:48;5.15;;;4.30;;
12780;SDS011;6454;43.304;24.344;2023-05-07T02:28:15;5.00;;;4.50;;
12780;SDS011;6454;43.304;24.344;2023-05-07T02:30:42;7.32;;;3.97;;
12780;SDS011;6454;43.304;24.344;2023-05-07T02:33:10;6.13;;;3.83;;
12780;SDS011;6454;43.304;24.344;2023-05-07T02:35:37;5.00;;;4.50;;
12780;SDS011;6454;43.304;24.344;2023-05-07T02:38:04;6.38;;;4.07;;
12780;SDS011;6454;43.304;24.344;2023-05-07T02:40:31;5.85;;;4.28;;
12780;SDS011;6454;43.304;24.344;2023-05-07T02:43:03;6.57;;;3.97;;
12780;SDS011;6454;43.304;24.344;2023-05-07T02:45:30;4.32;;;3.88;;
12780;SDS011;6454;43.304;24.344;2023-05-07T02:47:57;6.57;;;3.80;;
12780;SDS011;6454;43.304;24.344;2023-05-07T02:50:25;4.35;;;3.95;;
12780;SDS011;6454;43.304;24.344;2023-05-07T02:52:52;4.05;;;3.70;;
12780;SDS011;6454;43.304;24.344;2023-05-07T02:55:19;5.05;;;3.63;;
12780;SDS011;6454;43.304;24.344;2023-05-07T02:57:46;3.72;;;3.42;;
12780;SDS011;6454;43.304;24.344;2023-05-07T03:00:13;7.00;;;3.83;;
12780;SDS011;6454;43.304;24.344;2023-05-07T03:02:41;8.90;;;4.20;;
12780;SDS011;6454;43.304;24.344;2023-05-07T03:05:08;4.63;;;4.15;;
12780;SDS011;6454;43.304;24.344;2023-05-07T03:07:37;4.60;;;4.20;;
12780;SDS011;6454;43.304;24.344;2023-05-07T03:10:04;6.13;;;3.30;;
12780;SDS011;6454;43.304;24.344;2023-05-07T03:12:32;3.97;;;3.58;;
12780;SDS011;6454;43.304;24.344;2023-05-07T03:14:58;4.18;;;3.72;;
12780;SDS011;6454;43.304;24.344;2023-05-07T03:17:25;6.03;;;4.20;;
12780;SDS011;6454;43.304;24.344;2023-05-07T03:19:52;4.28;;;3.88;;
12780;SDS011;6454;43.304;24.344;2023-05-07T03:22:19;5.43;;;3.88;;
12780;SDS011;6454;43.304;24.344;2023-05-07T03:24:47;3.85;;;3.45;;
12780;SDS011;6454;43.304;24.344;2023-05-07T03:27:14;4.07;;;3.63;;
12780;SDS011;6454;43.304;24.344;2023-05-07T03:29:41;4.05;;;3.65;;
12780;SDS011;6454;43.304;24.344;2023-05-07T03:32:07;4.10;;;3.58;;
12780;SDS011;6454;43.304;24.344;2023-05-07T03:34:34;4.25;;;3.63;;
12780;SDS011;6454;43.304;24.344;2023-05-07T03:37:01;5.82;;;3.90;;
12780;SDS011;6454;43.304;24.344;2023-05-07T03:39:28;6.63;;;3.53;;
12780;SDS011;6454;43.304;24.344;2023-05-07T03:41:57;5.20;;;3.55;;
12780;SDS011;6454;43.304;24.344;2023-05-07T03:44:24;3.67;;;3.38;;
12780;SDS011;6454;43.304;24.344;2023-05-07T03:46:51;5.22;;;3.70;;
12780;SDS011;6454;43.304;24.344;2023-05-07T03:49:18;4.07;;;3.72;;
12780;SDS011;6454;43.304;24.344;2023-05-07T03:51:44;4.82;;;3.70;;
12780;SDS011;6454;43.304;24.344;2023-05-07T03:54:11;9.70;;;3.90;;
12780;SDS011;6454;43.304;24.344;2023-05-07T03:56:38;5.10;;;4.00;;
12780;SDS011;6454;43.304;24.344;2023-05-07T03:59:07;4.78;;;4.38;;
12780;SDS011;6454;43.304;24.344;2023-05-07T04:01:34;4.95;;;4.45;;
12780;SDS011;6454;43.304;24.344;2023-05-07T04:04:01;4.63;;;4.15;;
12780;SDS011;6454;43.304;24.344;2023-05-07T04:06:28;5.88;;;4.20;;
12780;SDS011;6454;43.304;24.344;2023-05-07T04:08:55;9.20;;;4.38;;
12780;SDS011;6454;43.304;24.344;2023-05-07T04:11:21;4.57;;;4.05;;
12780;SDS011;6454;43.304;24.344;2023-05-07T04:13:48;6.82;;;4.28;;
12780;SDS011;6454;43.304;24.344;2023-05-07T04:16:16;6.03;;;4.57;;
12780;SDS011;6454;43.304;24.344;2023-05-07T04:18:43;5.32;;;4.82;;
12780;SDS011;6454;43.304;24.344;2023-05-07T04:21:13;5.95;;;4.70;;
12780;SDS011;6454;43.304;24.344;2023-05-07T04:23:41;6.63;;;5.05;;
12780;SDS011;6454;43.304;24.344;2023-05-07T04:26:08;10.38;;;5.45;;
12780;SDS011;6454;43.304;24.344;2023-05-07T04:28:34;10.77;;;5.93;;
12780;SDS011;6454;43.304;24.344;2023-05-07T04:31:01;11.48;;;6.03;;
12780;SDS011;6454;43.304;24.344;2023-05-07T04:33:30;6.05;;;5.30;;
12780;SDS011;6454;43.304;24.344;2023-05-07T04:35:57;6.78;;;5.32;;
12780;SDS011;6454;43.304;24.344;2023-05-07T04:38:27;8.65;;;5.72;;
12780;SDS011;6454;43.304;24.344;2023-05-07T04:40:55;6.88;;;5.10;;
12780;SDS011;6454;43.304;24.344;2023-05-07T04:43:22;7.80;;;4.10;;
12780;SDS011;6454;43.304;24.344;2023-05-07T04:45:49;8.07;;;4.55;;
12780;SDS011;6454;43.304;24.344;2023-05-07T04:48:16;5.18;;;4.68;;
12780;SDS011;6454;43.304;24.344;2023-05-07T04:50:46;5.85;;;4.25;;
12780;SDS011;6454;43.304;24.344;2023-05-07T04:53:13;6.82;;;4.10;;
12780;SDS011;6454;43.304;24.344;2023-05-07T04:55:40;10.05;;;5.25;;
12780;SDS011;6454;43.304;24.344;2023-05-07T04:58:07;10.73;;;5.97;;
12780;SDS011;6454;43.304;24.344;2023-05-07T05:00:34;6.55;;;5.35;;
12780;SDS011;6454;43.304;24.344;2023-05-07T05:03:01;10.00;;;6.10;;
12780;SDS011;6454;43.304;24.344;2023-05-07T05:05:28;11.80;;;6.25;;
12780;SDS011;6454;43.304;24.344;2023-05-07T05:07:56;7.68;;;4.88;;
12780;SDS011;6454;43.304;24.344;2023-05-07T05:10:23;9.20;;;5.22;;
12780;SDS011;6454;43.304;24.344;2023-05-07T05:12:50;7.25;;;5.43;;
12780;SDS011;6454;43.304;24.344;2023-05-07T05:15:16;7.68;;;5.70;;
12780;SDS011;6454;43.304;24.344;2023-05-07T05:17:43;7.28;;;6.10;;
12780;SDS011;6454;43.304;24.344;2023-05-07T05:20:10;8.02;;;5.88;;
12780;SDS011;6454;43.304;24.344;2023-05-07T05:22:37;5.63;;;5.10;;
12780;SDS011;6454;43.304;24.344;2023-05-07T05:25:06;5.38;;;4.70;;
12780;SDS011;6454;43.304;24.344;2023-05-07T05:27:33;5.90;;;5.07;;
12780;SDS011;6454;43.304;24.344;2023-05-07T05:30:00;5.70;;;5.10;;
12780;SDS011;6454;43.304;24.344;2023-05-07T05:32:27;6.63;;;5.43;;
12780;SDS011;6454;43.304;24.344;2023-05-07T05:34:54;5.63;;;5.13;;
12780;SDS011;6454;43.304;24.344;2023-05-07T05:37:21;6.00;;;4.70;;
12780;SDS011;6454;43.304;24.344;2023-05-07T05:39:48;6.88;;;4.90;;
12780;SDS011;6454;43.304;24.344;2023-05-07T05:42:16;5.25;;;4.75;;
12780;SDS011;6454;43.304;24.344;2023-05-07T05:44:43;5.45;;;4.95;;
12780;SDS011;6454;43.304;24.344;2023-05-07T05:47:10;4.63;;;4.22;;
12780;SDS011;6454;43.304;24.344;2023-05-07T05:49:37;5.88;;;4.57;;
12780;SDS011;6454;43.304;24.344;2023-05-07T05:52:04;5.47;;;4.28;;
12780;SDS011;6454;43.304;24.344;2023-05-07T05:54:30;4.57;;;4.05;;
12780;SDS011;6454;43.304;24.344;2023-05-07T05:56:57;5.78;;;4.55;;
12780;SDS011;6454;43.304;24.344;2023-05-07T05:59:26;4.70;;;4.30;;
12780;SDS011;6454;43.304;24.344;2023-05-07T06:01:52;6.45;;;4.20;;
12780;SDS011;6454;43.304;24.344;2023-05-07T06:04:19;4.60;;;3.90;;
12780;SDS011;6454;43.304;24.344;2023-05-07T06:06:46;4.20;;;3.80;;
12780;SDS011;6454;43.304;24.344;2023-05-07T06:09:13;5.25;;;3.80;;
12780;SDS011;6454;43.304;24.344;2023-05-07T06:11:40;6.15;;;3.95;;
12780;SDS011;6454;43.304;24.344;2023-05-07T06:14:07;4.00;;;3.53;;
12780;SDS011;6454;43.304;24.344;2023-05-07T06:16:35;4.10;;;3.20;;
12780;SDS011;6454;43.304;24.344;2023-05-07T06:19:03;3.70;;;3.40;;
12780;SDS011;6454;43.304;24.344;2023-05-07T06:21:30;5.25;;;3.45;;
12780;SDS011;6454;43.304;24.344;2023-05-07T06:23:57;3.95;;;3.65;;
12780;SDS011;6454;43.304;24.344;2023-05-07T06:26:24;3.65;;;3.35;;
12780;SDS011;6454;43.304;24.344;2023-05-07T06:28:51;4.88;;;3.33;;
12780;SDS011;6454;43.304;24.344;2023-05-07T06:31:18;5.88;;;4.05;;
12780;SDS011;6454;43.304;24.344;2023-05-07T06:33:48;5.97;;;3.83;;
12780;SDS011;6454;43.304;24.344;2023-05-07T06:36:15;5.65;;;3.03;;
12780;SDS011;6454;43.304;24.344;2023-05-07T06:38:42;4.75;;;3.58;;
12780;SDS011;6454;43.304;24.344;2023-05-07T06:41:09;3.83;;;3.50;;
12780;SDS011;6454;43.304;24.344;2023-05-07T06:43:36;5.32;;;3.78;;
12780;SDS011;6454;43.304;24.344;2023-05-07T06:46:03;4.68;;;3.55;;
12780;SDS011;6454;43.304;24.344;2023-05-07T06:48:30;5.63;;;3.90;;
12780;SDS011;6454;43.304;24.344;2023-05-07T06:50:58;5.30;;;4.35;;
12780;SDS011;6454;43.304;24.344;2023-05-07T06:53:25;4.47;;;3.53;;
12780;SDS011;6454;43.304;24.344;2023-05-07T06:55:53;4.15;;;3.33;;
12780;SDS011;6454;43.304;24.344;2023-05-07T06:58:20;4.95;;;3.13;;
12780;SDS011;6454;43.304;24.344;2023-05-07T07:00:47;3.95;;;3.33;;
12780;SDS011;6454;43.304;24.344;2023-05-07T07:03:14;5.45;;;3.35;;
12780;SDS011;6454;43.304;24.344;2023-05-07T07:05:41;4.03;;;3.60;;
12780;SDS011;6454;43.304;24.344;2023-05-07T07:08:10;3.53;;;3.22;;
12780;SDS011;6454;43.304;24.344;2023-05-07T07:10:37;7.10;;;3.20;;
12780;SDS011;6454;43.304;24.344;2023-05-07T07:13:04;3.78;;;3.22;;
12780;SDS011;6454;43.304;24.344;2023-05-07T07:15:31;4.45;;;3.50;;
12780;SDS011;6454;43.304;24.344;2023-05-07T07:17:57;5.50;;;3.30;;
12780;SDS011;6454;43.304;24.344;2023-05-07T07:20:24;4.10;;;3.30;;
12780;SDS011;6454;43.304;24.344;2023-05-07T07:22:53;4.50;;;3.03;;
12780;SDS011;6454;43.304;24.344;2023-05-07T07:25:22;4.57;;;3.30;;
12780;SDS011;6454;43.304;24.344;2023-05-07T07:27:48;3.50;;;3.05;;
12780;SDS011;6454;43.304;24.344;2023-05-07T07:30:15;3.85;;;2.80;;
12780;SDS011;6454;43.304;24.344;2023-05-07T07:32:43;4.75;;;3.15;;
12780;SDS011;6454;43.304;24.344;2023-05-07T07:35:10;7.40;;;3.38;;
12780;SDS011;6454;43.304;24.344;2023-05-07T07:37:38;5.38;;;3.00;;
12780;SDS011;6454;43.304;24.344;2023-05-07T07:40:05;4.78;;;2.70;;
12780;SDS011;6454;43.304;24.344;2023-05-07T07:42:34;3.10;;;2.67;;
12780;SDS011;6454;43.304;24.344;2023-05-07T07:45:01;5.13;;;3.00;;
12780;SDS011;6454;43.304;24.344;2023-05-07T07:47:28;4.35;;;2.80;;
12780;SDS011;6454;43.304;24.344;2023-05-07T07:49:55;3.88;;;2.67;;
12780;SDS011;6454;43.304;24.344;2023-05-07T07:52:22;3.83;;;2.58;;
12780;SDS011;6454;43.304;24.344;2023-05-07T07:54:50;4.07;;;2.20;;
12780;SDS011;6454;43.304;24.344;2023-05-07T07:57:16;4.18;;;2.53;;
12780;SDS011;6454;43.304;24.344;2023-05-07T07:59:45;3.20;;;2.08;;
12780;SDS011;6454;43.304;24.344;2023-05-07T08:02:12;6.40;;;2.85;;
12780;SDS011;6454;43.304;24.344;2023-05-07T08:04:39;4.40;;;2.40;;
12780;SDS011;6454;43.304;24.344;2023-05-07T08:07:06;3.13;;;2.42;;
12780;SDS011;6454;43.304;24.344;2023-05-07T08:09:33;3.10;;;2.45;;
12780;SDS011;6454;43.304;24.344;2023-05-07T08:12:00;4.68;;;2.47;;
12780;SDS011;6454;43.304;24.344;2023-05-07T08:14:27;5.10;;;2.20;;
12780;SDS011;6454;43.304;24.344;2023-05-07T08:16:56;2.42;;;2.20;;
12780;SDS011;6454;43.304;24.344;2023-05-07T08:19:23;2.63;;;1.90;;
12780;SDS011;6454;43.304;24.344;2023-05-07T08:21:50;2.95;;;2.22;;
12780;SDS011;6454;43.304;24.344;2023-05-07T08:24:17;2.97;;;2.17;;
12780;SDS011;6454;43.304;24.344;2023-05-07T08:26:44;5.70;;;2.40;;
12780;SDS011;6454;43.304;24.344;2023-05-07T08:29:11;3.25;;;2.00;;
12780;SDS011;6454;43.304;24.344;2023-05-07T08:31:38;5.60;;;2.05;;
12780;SDS011;6454;43.304;24.344;2023-05-07T08:34:07;5.88;;;2.00;;
12780;SDS011;6454;43.304;24.344;2023-05-07T08:36:35;2.17;;;1.98;;
12780;SDS011;6454;43.304;24.344;2023-05-07T08:39:02;2.90;;;2.28;;
12780;SDS011;6454;43.304;24.344;2023-05-07T08:41:29;2.30;;;1.80;;
12780;SDS011;6454;43.304;24.344;2023-05-07T08:43:57;3.28;;;1.88;;
12780;SDS011;6454;43.304;24.344;2023-05-07T08:46:25;2.60;;;2.08;;
12780;SDS011;6454;43.304;24.344;2023-05-07T08:48:55;3.05;;;2.17;;
12780;SDS011;6454;43.304;24.344;2023-05-07T08:51:23;5.65;;;1.95;;
12780;SDS011;6454;43.304;24.344;2023-05-07T08:53:50;4.28;;;1.80;;
12780;SDS011;6454;43.304;24.344;2023-05-07T08:56:17;3.25;;;1.80;;
12780;SDS011;6454;43.304;24.344;2023-05-07T08:58:45;2.60;;;1.80;;
12780;SDS011;6454;43.304;24.344;2023-05-07T09:01:13;5.30;;;2.00;;
12780;SDS011;6454;43.304;24.344;2023-05-07T09:03:41;1.90;;;1.80;;
12780;SDS011;6454;43.304;24.344;2023-05-07T09:06:10;2.42;;;1.80;;
12780;SDS011;6454;43.304;24.344;2023-05-07T09:08:39;2.22;;;1.88;;
12780;SDS011;6454;43.304;24.344;2023-05-07T09:11:05;4.43;;;2.00;;
12780;SDS011;6454;43.304;24.344;2023-05-07T09:13:32;3.60;;;1.80;;
12780;SDS011;6454;43.304;24.344;2023-05-07T09:16:01;4.03;;;2.00;;
12780;SDS011;6454;43.304;24.344;2023-05-07T09:18:40;2.67;;;1.90;;
12780;SDS011;6454;43.304;24.344;2023-05-07T09:21:09;2.25;;;1.75;;
12780;SDS011;6454;43.304;24.344;2023-05-07T09:23:36;2.00;;;1.80;;
12780;SDS011;6454;43.304;24.344;2023-05-07T09:26:06;3.17;;;1.80;;
12780;SDS011;6454;43.304;24.344;2023-05-07T09:28:37;3.60;;;1.85;;
12780;SDS011;6454;43.304;24.344;2023-05-07T09:31:05;4.90;;;1.88;;
12780;SDS011;6454;43.304;24.344;2023-05-07T09:33:32;4.57;;;1.85;;
12780;SDS011;6454;43.304;24.344;2023-05-07T09:36:01;3.83;;;1.88;;
12780;SDS011;6454;43.304;24.344;2023-05-07T09:38:31;4.10;;;1.80;;
12780;SDS011;6454;43.304;24.344;2023-05-07T09:41:04;4.72;;;1.88;;
12780;SDS011;6454;43.304;24.344;2023-05-07T09:43:32;3.30;;;1.73;;
12780;SDS011;6454;43.304;24.344;2023-05-07T09:46:02;2.00;;;1.75;;
12780;SDS011;6454;43.304;24.344;2023-05-07T09:48:29;2.45;;;1.60;;
12780;SDS011;6454;43.304;24.344;2023-05-07T09:50:57;2.25;;;1.70;;
12780;SDS011;6454;43.304;24.344;2023-05-07T09:53:29;2.40;;;1.80;;
12780;SDS011;6454;43.304;24.344;2023-05-07T09:55:57;1.95;;;1.60;;
12780;SDS011;6454;43.304;24.344;2023-05-07T09:58:26;2.38;;;1.77;;
12780;SDS011;6454;43.304;24.344;2023-05-07T10:00:54;7.00;;;2.20;;
12780;SDS011;6454;43.304;24.344;2023-05-07T10:03:22;5.55;;;2.05;;
12780;SDS011;6454;43.304;24.344;2023-05-07T10:05:53;3.05;;;1.58;;
12780;SDS011;6454;43.304;24.344;2023-05-07T10:08:21;7.63;;;1.88;;
12780;SDS011;6454;43.304;24.344;2023-05-07T10:10:48;2.65;;;1.70;;
12780;SDS011;6454;43.304;24.344;2023-05-07T10:13:16;3.58;;;1.70;;
12780;SDS011;6454;43.304;24.344;2023-05-07T10:15:46;2.30;;;1.67;;
12780;SDS011;6454;43.304;24.344;2023-05-07T10:18:14;3.45;;;1.70;;
12780;SDS011;6454;43.304;24.344;2023-05-07T10:20:42;4.80;;;2.03;;
12780;SDS011;6454;43.304;24.344;2023-05-07T10:23:13;3.47;;;2.13;;
12780;SDS011;6454;43.304;24.344;2023-05-07T10:25:45;5.72;;;2.00;;
12780;SDS011;6454;43.304;24.344;2023-05-07T10:28:13;2.05;;;1.83;;
12780;SDS011;6454;43.304;24.344;2023-05-07T10:30:46;2.60;;;1.83;;
12780;SDS011;6454;43.304;24.344;2023-05-07T10:33:26;5.10;;;1.98;;
12780;SDS011;6454;43.304;24.344;2023-05-07T10:35:55;3.75;;;1.73;;
12780;SDS011;6454;43.304;24.344;2023-05-07T10:38:25;3.17;;;1.75;;
12780;SDS011;6454;43.304;24.344;2023-05-07T10:40:53;2.65;;;1.75;;
12780;SDS011;6454;43.304;24.344;2023-05-07T10:43:20;1.98;;;1.60;;
12780;SDS011;6454;43.304;24.344;2023-05-07T10:51:36;2.63;;;1.80;;
12780;SDS011;6454;43.304;24.344;2023-05-07T10:54:21;3.17;;;1.92;;
12780;SDS011;6454;43.304;24.344;2023-05-07T10:56:48;3.25;;;1.80;;
12780;SDS011;6454;43.304;24.344;2023-05-07T10:59:37;2.20;;;1.98;;
12780;SDS011;6454;43.304;24.344;2023-05-07T11:02:10;2.58;;;1.90;;
12780;SDS011;6454;43.304;24.344;2023-05-07T11:04:39;2.70;;;1.88;;
12780;SDS011;6454;43.304;24.344;2023-05-07T11:10:04;2.50;;;1.80;;
12780;SDS011;6454;43.304;24.344;2023-05-07T11:12:48;4.88;;;1.95;;
12780;SDS011;6454;43.304;24.344;2023-05-07T11:15:37;4.78;;;1.80;;
12780;SDS011;6454;43.304;24.344;2023-05-07T11:18:08;2.28;;;2.00;;
12780;SDS011;6454;43.304;24.344;2023-05-07T11:20:49;3.90;;;2.00;;
12780;SDS011;6454;43.304;24.344;2023-05-07T11:26:21;7.85;;;2.38;;
12780;SDS011;6454;43.304;24.344;2023-05-07T11:28:48;2.47;;;1.77;;
12780;SDS011;6454;43.304;24.344;2023-05-07T11:31:17;2.20;;;1.80;;
12780;SDS011;6454;43.304;24.344;2023-05-07T11:33:50;2.72;;;1.83;;
12780;SDS011;6454;43.304;24.344;2023-05-07T11:36:17;2.67;;;1.60;;
12780;SDS011;6454;43.304;24.344;2023-05-07T11:38:44;4.43;;;1.70;;
12780;SDS011;6454;43.304;24.344;2023-05-07T11:41:11;2.53;;;1.80;;
12780;SDS011;6454;43.304;24.344;2023-05-07T11:43:39;2.33;;;1.60;;
12780;SDS011;6454;43.304;24.344;2023-05-07T11:46:20;3.33;;;1.90;;
12780;SDS011;6454;43.304;24.344;2023-05-07T11:48:50;2.78;;;1.60;;
12780;SDS011;6454;43.304;24.344;2023-05-07T11:51:20;3.65;;;1.90;;
12780;SDS011;6454;43.304;24.344;2023-05-07T11:53:48;5.35;;;2.00;;
12780;SDS011;6454;43.304;24.344;2023-05-07T11:56:16;2.38;;;1.60;;
12780;SDS011;6454;43.304;24.344;2023-05-07T11:58:44;2.15;;;1.95;;
12780;SDS011;6454;43.304;24.344;2023-05-07T12:01:13;4.50;;;1.88;;
12780;SDS011;6454;43.304;24.344;2023-05-07T12:03:41;7.10;;;1.90;;
12780;SDS011;6454;43.304;24.344;2023-05-07T12:06:11;2.88;;;1.67;;
12780;SDS011;6454;43.304;24.344;2023-05-07T12:08:39;2.15;;;1.80;;
12780;SDS011;6454;43.304;24.344;2023-05-07T12:11:08;2.28;;;1.80;;
12780;SDS011;6454;43.304;24.344;2023-05-07T12:13:36;1.92;;;1.60;;
12780;SDS011;6454;43.304;24.344;2023-05-07T12:16:04;3.25;;;1.77;;
12780;SDS011;6454;43.304;24.344;2023-05-07T12:18:32;4.70;;;2.00;;
12780;SDS011;6454;43.304;24.344;2023-05-07T12:21:01;2.38;;;1.67;;
12780;SDS011;6454;43.304;24.344;2023-05-07T12:23:29;2.65;;;1.58;;
12780;SDS011;6454;43.304;24.344;2023-05-07T12:25:56;3.05;;;1.75;;
12780;SDS011;6454;43.304;24.344;2023-05-07T12:28:23;2.05;;;1.85;;
12780;SDS011;6454;43.304;24.344;2023-05-07T12:30:50;2.00;;;1.80;;
12780;SDS011;6454;43.304;24.344;2023-05-07T12:33:19;3.85;;;1.90;;
12780;SDS011;6454;43.304;24.344;2023-05-07T12:35:52;3.25;;;1.70;;
12780;SDS011;6454;43.304;24.344;2023-05-07T12:38:20;1.70;;;1.60;;
12780;SDS011;6454;43.304;24.344;2023-05-07T12:40:49;7.22;;;2.10;;
12780;SDS011;6454;43.304;24.344;2023-05-07T12:43:17;2.42;;;1.92;;
12780;SDS011;6454;43.304;24.344;2023-05-07T12:45:45;5.20;;;1.75;;
12780;SDS011;6454;43.304;24.344;2023-05-07T12:48:13;3.50;;;1.88;;
12780;SDS011;6454;43.304;24.344;2023-05-07T12:50:40;5.03;;;1.85;;
12780;SDS011;6454;43.304;24.344;2023-05-07T12:53:08;3.95;;;1.90;;
12780;SDS011;6454;43.304;24.344;2023-05-07T12:55:40;3.35;;;1.73;;
12780;SDS011;6454;43.304;24.344;2023-05-07T12:58:10;2.42;;;1.50;;
12780;SDS011;6454;43.304;24.344;2023-05-07T13:00:42;5.60;;;2.42;;
12780;SDS011;6454;43.304;24.344;2023-05-07T13:03:09;5.85;;;2.40;;
12780;SDS011;6454;43.304;24.344;2023-05-07T13:05:37;2.08;;;1.85;;
12780;SDS011;6454;43.304;24.344;2023-05-07T13:08:05;9.02;;;2.20;;
12780;SDS011;6454;43.304;24.344;2023-05-07T13:10:34;5.15;;;2.55;;
12780;SDS011;6454;43.304;24.344;2023-05-07T13:13:01;3.00;;;1.83;;
12780;SDS011;6454;43.304;24.344;2023-05-07T13:15:30;3.30;;;1.70;;
12780;SDS011;6454;43.304;24.344;2023-05-07T13:17:57;4.35;;;1.60;;
12780;SDS011;6454;43.304;24.344;2023-05-07T13:20:24;16.15;;;14.20;;
12780;SDS011;6454;43.304;24.344;2023-05-07T13:22:51;7.57;;;2.22;;
12780;SDS011;6454;43.304;24.344;2023-05-07T13:25:18;3.72;;;1.77;;
12780;SDS011;6454;43.304;24.344;2023-05-07T13:27:45;1.83;;;1.60;;
12780;SDS011;6454;43.304;24.344;2023-05-07T13:30:12;1.92;;;1.65;;
12780;SDS011;6454;43.304;24.344;2023-05-07T13:32:41;4.18;;;1.83;;
12780;SDS011;6454;43.304;24.344;2023-05-07T13:35:07;2.80;;;1.90;;
12780;SDS011;6454;43.304;24.344;2023-05-07T13:37:34;1.73;;;1.63;;
12780;SDS011;6454;43.304;24.344;2023-05-07T13:40:02;3.15;;;2.00;;
12780;SDS011;6454;43.304;24.344;2023-05-07T13:42:29;4.75;;;1.80;;
12780;SDS011;6454;43.304;24.344;2023-05-07T13:44:56;2.00;;;1.80;;
12780;SDS011;6454;43.304;24.344;2023-05-07T13:47:23;2.65;;;1.95;;
12780;SDS011;6454;43.304;24.344;2023-05-07T13:49:52;5.03;;;2.40;;
12780;SDS011;6454;43.304;24.344;2023-05-07T13:52:19;4.93;;;2.28;;
12780;SDS011;6454;43.304;24.344;2023-05-07T13:54:46;4.25;;;2.17;;
12780;SDS011;6454;43.304;24.344;2023-05-07T13:57:13;6.63;;;1.98;;
12780;SDS011;6454;43.304;24.344;2023-05-07T13:59:40;5.20;;;1.98;;
12780;SDS011;6454;43.304;24.344;2023-05-07T14:02:07;5.43;;;1.80;;
12780;SDS011;6454;43.304;24.344;2023-05-07T14:04:34;4.95;;;2.00;;
12780;SDS011;6454;43.304;24.344;2023-05-07T14:07:04;4.13;;;2.15;;
12780;SDS011;6454;43.304;24.344;2023-05-07T14:09:31;5.15;;;1.90;;
12780;SDS011;6454;43.304;24.344;2023-05-07T14:11:58;4.82;;;2.30;;
12780;SDS011;6454;43.304;24.344;2023-05-07T14:14:26;5.15;;;1.92;;
12780;SDS011;6454;43.304;24.344;2023-05-07T14:16:53;4.00;;;2.08;;
12780;SDS011;6454;43.304;24.344;2023-05-07T14:19:20;4.80;;;2.00;;
12780;SDS011;6454;43.304;24.344;2023-05-07T14:21:47;3.90;;;1.83;;
12780;SDS011;6454;43.304;24.344;2023-05-07T14:24:16;3.00;;;1.85;;
12780;SDS011;6454;43.304;24.344;2023-05-07T14:26:42;2.85;;;1.88;;
12780;SDS011;6454;43.304;24.344;2023-05-07T14:29:10;2.03;;;1.83;;
12780;SDS011;6454;43.304;24.344;2023-05-07T14:31:37;3.00;;;1.63;;
12780;SDS011;6454;43.304;24.344;2023-05-07T14:34:04;4.63;;;2.00;;
12780;SDS011;6454;43.304;24.344;2023-05-07T14:36:31;8.00;;;1.88;;
12780;SDS011;6454;43.304;24.344;2023-05-07T14:38:57;7.95;;;1.90;;
12780;SDS011;6454;43.304;24.344;2023-05-07T14:41:26;5.03;;;2.05;;
12780;SDS011;6454;43.304;24.344;2023-05-07T14:43:53;5.13;;;2.10;;
12780;SDS011;6454;43.304;24.344;2023-05-07T14:46:20;7.15;;;2.30;;
12780;SDS011;6454;43.304;24.344;2023-05-07T14:48:47;3.42;;;1.80;;
12780;SDS011;6454;43.304;24.344;2023-05-07T14:51:14;3.30;;;1.70;;
12780;SDS011;6454;43.304;24.344;2023-05-07T14:53:41;5.63;;;1.92;;
12780;SDS011;6454;43.304;24.344;2023-05-07T14:56:08;5.03;;;2.00;;
12780;SDS011;6454;43.304;24.344;2023-05-07T14:58:37;8.05;;;2.10;;
12780;SDS011;6454;43.304;24.344;2023-05-07T15:01:03;8.65;;;2.25;;
12780;SDS011;6454;43.304;24.344;2023-05-07T15:03:30;3.58;;;1.95;;